sensor_id;sensor_type;location;lat;lon;timestamp;pressure;altitude;pressure_sealevel;temperature;humidity
6204;BME280;3135;42.602;23.468;2022-07-26T00:01:42;92916.84;;;22.80;82.40
6204;BME280;3135;42.602;23.468;2022-07-26T00:04:08;92903.78;;;22.66;82.85
6204;BME280;3135;42.602;23.468;2022-07-26T00:06:33;92903.16;;;22.77;82.61
6204;BME280;3135;42.602;23.468;2022-07-26T00:08:59;92897.47;;;22.62;83.64
6204;BME280;3135;42.602;23.468;2022-07-26T00:11:25;92906.16;;;22.68;83.78
6204;BME280;3135;42.602;23.468;2022-07-26T00:13:51;92904.75;;;22.78;83.19
6204;BME280;3135;42.602;23.468;2022-07-26T00:16:17;92905.88;;;22.77;83.83
6204;BME280;3135;42.602;23.468;2022-07-26T00:18:43;92903.31;;;22.84;83.11
6204;BME280;3135;42.602;23.468;2022-07-26T00:21:09;92890.59;;;22.68;83.38
6204;BME280;3135;42.602;23.468;2022-07-26T00:23:34;92905.78;;;22.69;83.88
6204;BME280;3135;42.602;23.468;2022-07-26T00:26:00;92912.72;;;22.67;84.05
6204;BME280;3135;42.602;23.468;2022-07-26T00:28:25;92891.97;;;22.59;84.87
6204;BME280;3135;42.602;23.468;2022-07-26T00:30:51;92894.41;;;22.64;84.19
6204;BME280;3135;42.602;23.468;2022-07-26T00:33:16;92904.69;;;22.74;84.97
6204;BME280;3135;42.602;23.468;2022-07-26T00:35:42;92894.41;;;22.64;84.93
6204;BME280;3135;42.602;23.468;2022-07-26T00:38:07;92881.94;;;22.43;85.51
6204;BME280;3135;42.602;23.468;2022-07-26T00:40:33;92890.97;;;22.48;85.63
6204;BME280;3135;42.602;23.468;2022-07-26T00:42:59;92900.72;;;22.49;86.44
6204;BME280;3135;42.602;23.468;2022-07-26T00:45:24;92903.44;;;22.49;87.08
6204;BME280;3135;42.602;23.468;2022-07-26T00:47:50;92888.34;;;22.32;87.55
6204;BME280;3135;42.602;23.468;2022-07-26T00:50:17;92896.31;;;22.40;87.28
6204;BME280;3135;42.602;23.468;2022-07-26T00:52:44;92895.44;;;22.36;87.51
6204;BME280;3135;42.602;23.468;2022-07-26T00:55:11;92879.75;;;22.30;88.13
6204;BME280;3135;42.602;23.468;2022-07-26T00:57:37;92879.81;;;22.33;87.30
6204;BME280;3135;42.602;23.468;2022-07-26T01:00:06;92891.19;;;22.39;88.50
6204;BME280;3135;42.602;23.468;2022-07-26T01:02:32;92884.69;;;22.24;88.36
6204;BME280;3135;42.602;23.468;2022-07-26T01:04:57;92887.09;;;22.26;89.43
6204;BME280;3135;42.602;23.468;2022-07-26T01:07:23;92881.56;;;22.22;88.84
6204;BME280;3135;42.602;23.468;2022-07-26T01:09:49;92879.81;;;21.94;88.81
6204;BME280;3135;42.602;23.468;2022-07-26T01:12:14;92885.66;;;22.12;90.56
6204;BME280;3135;42.602;23.468;2022-07-26T01:14:44;92887.13;;;22.10;91.01
6204;BME280;3135;42.602;23.468;2022-07-26T01:17:10;92866.34;;;22.02;91.54
6204;BME280;3135;42.602;23.468;2022-07-26T01:19:36;92890.56;;;22.07;91.69
6204;BME280;3135;42.602;23.468;2022-07-26T01:22:02;92892.19;;;21.73;93.35
6204;BME280;3135;42.602;23.468;2022-07-26T01:24:27;92884.88;;;21.77;92.03
6204;BME280;3135;42.602;23.468;2022-07-26T01:26:53;92882.53;;;21.75;92.19
6204;BME280;3135;42.602;23.468;2022-07-26T01:29:20;92889.69;;;21.83;91.35
6204;BME280;3135;42.602;23.468;2022-07-26T01:31:46;92869.72;;;21.76;90.46
6204;BME280;3135;42.602;23.468;2022-07-26T01:34:12;92887.56;;;21.92;90.25
6204;BME280;3135;42.602;23.468;2022-07-26T01:36:37;92884.25;;;22.03;87.69
6204;BME280;3135;42.602;23.468;2022-07-26T01:39:03;92893.13;;;22.00;87.23
6204;BME280;3135;42.602;23.468;2022-07-26T01:41:28;92879.09;;;21.98;88.97
6204;BME280;3135;42.602;23.468;2022-07-26T01:43:54;92884.56;;;21.98;90.27
6204;BME280;3135;42.602;23.468;2022-07-26T01:46:19;92888.91;;;22.02;87.85
6204;BME280;3135;42.602;23.468;2022-07-26T01:48:45;92892.47;;;22.06;88.80
6204;BME280;3135;42.602;23.468;2022-07-26T01:51:10;92893.56;;;22.02;89.45
6204;BME280;3135;42.602;23.468;2022-07-26T01:53:36;92876.69;;;21.92;87.55
6204;BME280;3135;42.602;23.468;2022-07-26T01:56:01;92891.78;;;21.90;89.74
6204;BME280;3135;42.602;23.468;2022-07-26T01:58:27;92877.22;;;21.82;89.34
6204;BME280;3135;42.602;23.468;2022-07-26T02:00:52;92891.06;;;21.93;89.97
6204;BME280;3135;42.602;23.468;2022-07-26T02:03:18;92899.66;;;21.95;92.16
6204;BME280;3135;42.602;23.468;2022-07-26T02:05:43;92890.63;;;21.91;91.81
6204;BME280;3135;42.602;23.468;2022-07-26T02:08:09;92901.50;;;21.91;91.51
6204;BME280;3135;42.602;23.468;2022-07-26T02:10:35;92898.13;;;21.78;91.66
6204;BME280;3135;42.602;23.468;2022-07-26T02:13:34;92905.75;;;21.88;90.03
6204;BME280;3135;42.602;23.468;2022-07-26T02:16:02;92905.22;;;21.83;90.60
6204;BME280;3135;42.602;23.468;2022-07-26T02:18:28;92900.06;;;21.78;90.55
6204;BME280;3135;42.602;23.468;2022-07-26T02:20:55;92893.59;;;21.66;89.75
6204;BME280;3135;42.602;23.468;2022-07-26T02:23:21;92887.81;;;21.68;90.39
6204;BME280;3135;42.602;23.468;2022-07-26T02:25:47;92899.25;;;21.58;91.27
6204;BME280;3135;42.602;23.468;2022-07-26T02:28:14;92896.97;;;21.60;91.36
6204;BME280;3135;42.602;23.468;2022-07-26T02:30:41;92904.06;;;21.64;91.18
6204;BME280;3135;42.602;23.468;2022-07-26T02:33:06;92894.03;;;21.68;90.92
6204;BME280;3135;42.602;23.468;2022-07-26T02:35:32;92900.19;;;21.65;91.55
6204;BME280;3135;42.602;23.468;2022-07-26T02:38:04;92899.53;;;21.53;92.13
6204;BME280;3135;42.602;23.468;2022-07-26T02:40:31;92900.91;;;21.62;90.41
6204;BME280;3135;42.602;23.468;2022-07-26T02:42:56;92891.22;;;21.46;94.03
6204;BME280;3135;42.602;23.468;2022-07-26T02:45:22;92902.53;;;21.48;94.00
6204;BME280;3135;42.602;23.468;2022-07-26T02:47:49;92908.38;;;21.50;93.74
6204;BME280;3135;42.602;23.468;2022-07-26T02:50:16;92902.34;;;21.40;93.39
6204;BME280;3135;42.602;23.468;2022-07-26T02:52:42;92905.00;;;21.37;93.23
6204;BME280;3135;42.602;23.468;2022-07-26T02:55:09;92911.47;;;21.48;93.03
6204;BME280;3135;42.602;23.468;2022-07-26T02:57:34;92901.06;;;21.34;93.80
6204;BME280;3135;42.602;23.468;2022-07-26T03:00:00;92900.31;;;21.22;95.27
6204;BME280;3135;42.602;23.468;2022-07-26T03:02:25;92895.34;;;21.24;93.99
6204;BME280;3135;42.602;23.468;2022-07-26T03:04:50;92896.81;;;21.21;95.28
6204;BME280;3135;42.602;23.468;2022-07-26T03:07:16;92890.97;;;21.19;97.74
6204;BME280;3135;42.602;23.468;2022-07-26T03:09:41;92902.53;;;21.16;96.06
6204;BME280;3135;42.602;23.468;2022-07-26T03:12:07;92912.44;;;21.24;97.73
6204;BME280;3135;42.602;23.468;2022-07-26T03:14:32;92919.97;;;21.15;95.45
6204;BME280;3135;42.602;23.468;2022-07-26T03:16:58;92907.53;;;20.98;97.68
6204;BME280;3135;42.602;23.468;2022-07-26T03:19:23;92926.56;;;20.98;99.26
6204;BME280;3135;42.602;23.468;2022-07-26T03:21:48;92925.41;;;20.83;100.00
6204;BME280;3135;42.602;23.468;2022-07-26T03:24:14;92905.78;;;20.74;100.00
6204;BME280;3135;42.602;23.468;2022-07-26T03:26:39;92908.69;;;20.65;100.00
6204;BME280;3135;42.602;23.468;2022-07-26T03:29:05;92923.38;;;20.64;100.00
6204;BME280;3135;42.602;23.468;2022-07-26T03:31:30;92917.69;;;20.54;100.00
6204;BME280;3135;42.602;23.468;2022-07-26T03:33:56;92932.94;;;20.58;100.00
6204;BME280;3135;42.602;23.468;2022-07-26T03:36:21;92923.31;;;20.61;100.00
6204;BME280;3135;42.602;23.468;2022-07-26T03:38:46;92923.31;;;20.61;100.00
6204;BME280;3135;42.602;23.468;2022-07-26T03:41:12;92922.75;;;20.55;100.00
6204;BME280;3135;42.602;23.468;2022-07-26T03:43:37;92919.78;;;20.32;100.00
6204;BME280;3135;42.602;23.468;2022-07-26T03:46:03;92917.28;;;20.39;100.00
6204;BME280;3135;42.602;23.468;2022-07-26T03:48:29;92921.03;;;20.63;100.00
6204;BME280;3135;42.602;23.468;2022-07-26T03:50:55;92910.16;;;20.63;100.00
6204;BME280;3135;42.602;23.468;2022-07-26T03:53:20;92927.34;;;20.67;100.00
6204;BME280;3135;42.602;23.468;2022-07-26T03:55:46;92913.84;;;20.71;100.00
6204;BME280;3135;42.602;23.468;2022-07-26T03:58:30;92904.03;;;20.66;100.00
6204;BME280;3135;42.602;23.468;2022-07-26T04:00:55;92913.94;;;20.74;100.00
6204;BME280;3135;42.602;23.468;2022-07-26T04:03:21;92919.47;;;20.78;100.00
6204;BME280;3135;42.602;23.468;2022-07-26T04:05:47;92899.84;;;20.84;100.00
6204;BME280;3135;42.602;23.468;2022-07-26T04:08:12;92915.88;;;20.89;100.00
6204;BME280;3135;42.602;23.468;2022-07-26T04:10:37;92895.78;;;20.78;100.00
6204;BME280;3135;42.602;23.468;2022-07-26T04:13:03;92896.09;;;20.89;100.00
6204;BME280;3135;42.602;23.468;2022-07-26T04:15:28;92893.78;;;21.07;100.00
6204;BME280;3135;42.602;23.468;2022-07-26T04:17:54;92912.34;;;21.21;100.00
6204;BME280;3135;42.602;23.468;2022-07-26T04:20:19;92906.03;;;21.16;100.00
6204;BME280;3135;42.602;23.468;2022-07-26T04:22:45;92885.06;;;21.17;100.00
6204;BME280;3135;42.602;23.468;2022-07-26T04:25:10;92900.97;;;21.31;100.00
6204;BME280;3135;42.602;23.468;2022-07-26T04:27:36;92909.81;;;21.43;100.00
6204;BME280;3135;42.602;23.468;2022-07-26T04:30:04;92867.66;;;21.18;100.00
6204;BME280;3135;42.602;23.468;2022-07-26T04:32:29;92890.78;;;21.43;100.00
6204;BME280;3135;42.602;23.468;2022-07-26T04:34:55;92907.69;;;21.53;100.00
6204;BME280;3135;42.602;23.468;2022-07-26T04:37:20;92892.44;;;21.48;100.00
6204;BME280;3135;42.602;23.468;2022-07-26T04:39:45;92887.50;;;21.54;100.00
6204;BME280;3135;42.602;23.468;2022-07-26T04:42:11;92897.78;;;21.80;100.00
6204;BME280;3135;42.602;23.468;2022-07-26T04:44:37;92895.97;;;21.87;100.00
6204;BME280;3135;42.602;23.468;2022-07-26T04:47:03;92897.63;;;21.92;100.00
6204;BME280;3135;42.602;23.468;2022-07-26T04:49:28;92888.97;;;21.86;100.00
6204;BME280;3135;42.602;23.468;2022-07-26T04:51:54;92893.00;;;21.92;100.00
6204;BME280;3135;42.602;23.468;2022-07-26T04:54:19;92880.69;;;21.99;100.00
6204;BME280;3135;42.602;23.468;2022-07-26T04:56:47;92885.28;;;22.14;100.00
6204;BME280;3135;42.602;23.468;2022-07-26T04:59:12;92895.28;;;22.29;100.00
6204;BME280;3135;42.602;23.468;2022-07-26T05:01:38;92883.41;;;22.18;100.00
6204;BME280;3135;42.602;23.468;2022-07-26T05:04:04;92881.75;;;22.33;100.00
6204;BME280;3135;42.602;23.468;2022-07-26T05:06:29;92896.50;;;22.51;100.00
6204;BME280;3135;42.602;23.468;2022-07-26T05:08:56;92886.00;;;22.53;100.00
6204;BME280;3135;42.602;23.468;2022-07-26T05:11:22;92897.41;;;22.59;100.00
6204;BME280;3135;42.602;23.468;2022-07-26T05:13:47;92908.03;;;22.64;100.00
6204;BME280;3135;42.602;23.468;2022-07-26T05:16:13;92893.66;;;22.67;99.86
6204;BME280;3135;42.602;23.468;2022-07-26T05:18:38;92880.34;;;22.62;100.00
6204;BME280;3135;42.602;23.468;2022-07-26T05:21:04;92889.06;;;22.71;99.63
6204;BME280;3135;42.602;23.468;2022-07-26T05:23:30;92874.47;;;22.83;100.00
6204;BME280;3135;42.602;23.468;2022-07-26T05:25:56;92888.09;;;22.83;100.00
6204;BME280;3135;42.602;23.468;2022-07-26T05:28:21;92896.50;;;22.93;98.19
6204;BME280;3135;42.602;23.468;2022-07-26T05:30:47;92891.13;;;23.01;95.78
6204;BME280;3135;42.602;23.468;2022-07-26T05:33:12;92895.25;;;23.14;95.00
6204;BME280;3135;42.602;23.468;2022-07-26T05:35:37;92879.28;;;22.89;95.13
6204;BME280;3135;42.602;23.468;2022-07-26T05:38:03;92896.19;;;22.99;99.62
6204;BME280;3135;42.602;23.468;2022-07-26T05:40:28;92898.50;;;23.23;98.99
6204;BME280;3135;42.602;23.468;2022-07-26T05:42:54;92890.25;;;23.42;94.28
6204;BME280;3135;42.602;23.468;2022-07-26T05:45:19;92903.22;;;23.76;90.54
6204;BME280;3135;42.602;23.468;2022-07-26T05:47:48;92903.41;;;23.90;92.43
6204;BME280;3135;42.602;23.468;2022-07-26T05:50:14;92878.56;;;23.98;90.28
6204;BME280;3135;42.602;23.468;2022-07-26T05:52:39;92880.28;;;24.10;89.80
6204;BME280;3135;42.602;23.468;2022-07-26T05:55:05;92866.47;;;24.30;89.08
6204;BME280;3135;42.602;23.468;2022-07-26T05:57:31;92891.81;;;24.64;88.22
6204;BME280;3135;42.602;23.468;2022-07-26T05:59:56;92887.28;;;24.75;86.94
6204;BME280;3135;42.602;23.468;2022-07-26T06:02:22;92876.88;;;24.91;84.36
6204;BME280;3135;42.602;23.468;2022-07-26T06:04:47;92897.50;;;25.26;82.70
6204;BME280;3135;42.602;23.468;2022-07-26T06:07:13;92887.09;;;25.46;81.18
6204;BME280;3135;42.602;23.468;2022-07-26T06:09:39;92862.53;;;25.57;80.22
6204;BME280;3135;42.602;23.468;2022-07-26T06:12:04;92848.88;;;25.64;80.85
6204;BME280;3135;42.602;23.468;2022-07-26T06:14:30;92888.31;;;26.18;77.56
6204;BME280;3135;42.602;23.468;2022-07-26T06:16:55;92892.59;;;26.08;77.75
6204;BME280;3135;42.602;23.468;2022-07-26T06:19:21;92879.66;;;26.05;76.91
6204;BME280;3135;42.602;23.468;2022-07-26T06:21:46;92873.41;;;26.08;76.66
6204;BME280;3135;42.602;23.468;2022-07-26T06:24:12;92878.97;;;26.30;75.45
6204;BME280;3135;42.602;23.468;2022-07-26T06:26:38;92862.97;;;26.42;74.65
6204;BME280;3135;42.602;23.468;2022-07-26T06:29:03;92870.38;;;26.31;75.42
6204;BME280;3135;42.602;23.468;2022-07-26T06:31:29;92870.81;;;26.44;75.34
6204;BME280;3135;42.602;23.468;2022-07-26T06:33:55;92861.91;;;26.68;74.22
6204;BME280;3135;42.602;23.468;2022-07-26T06:36:20;92869.69;;;26.56;74.68
6204;BME280;3135;42.602;23.468;2022-07-26T06:38:46;92859.53;;;26.60;73.12
6204;BME280;3135;42.602;23.468;2022-07-26T06:41:12;92858.00;;;26.80;70.36
6204;BME280;3135;42.602;23.468;2022-07-26T06:43:37;92850.19;;;26.96;71.60
6204;BME280;3135;42.602;23.468;2022-07-26T06:46:04;92870.59;;;27.31;71.27
6204;BME280;3135;42.602;23.468;2022-07-26T06:48:30;92872.16;;;27.54;69.48
6204;BME280;3135;42.602;23.468;2022-07-26T06:50:55;92869.41;;;27.32;70.09
6204;BME280;3135;42.602;23.468;2022-07-26T06:53:20;92880.75;;;27.63;68.75
6204;BME280;3135;42.602;23.468;2022-07-26T06:55:46;92872.94;;;27.72;68.61
6204;BME280;3135;42.602;23.468;2022-07-26T06:58:11;92869.78;;;27.77;67.16
6204;BME280;3135;42.602;23.468;2022-07-26T07:00:37;92861.94;;;27.58;67.73
6204;BME280;3135;42.602;23.468;2022-07-26T07:03:02;92892.16;;;27.43;67.57
6204;BME280;3135;42.602;23.468;2022-07-26T07:05:27;92862.72;;;27.55;67.29
6204;BME280;3135;42.602;23.468;2022-07-26T07:07:53;92864.28;;;27.77;66.32
6204;BME280;3135;42.602;23.468;2022-07-26T07:10:18;92859.88;;;28.15;65.95
6204;BME280;3135;42.602;23.468;2022-07-26T07:12:44;92862.56;;;28.26;66.57
6204;BME280;3135;42.602;23.468;2022-07-26T07:15:10;92866.56;;;28.07;66.34
6204;BME280;3135;42.602;23.468;2022-07-26T07:17:36;92865.78;;;28.07;67.27
6204;BME280;3135;42.602;23.468;2022-07-26T07:20:02;92864.94;;;28.20;66.85
6204;BME280;3135;42.602;23.468;2022-07-26T07:22:29;92870.38;;;28.42;67.27
6204;BME280;3135;42.602;23.468;2022-07-26T07:24:57;92862.47;;;28.55;64.43
6204;BME280;3135;42.602;23.468;2022-07-26T07:27:22;92857.34;;;28.57;64.78
6204;BME280;3135;42.602;23.468;2022-07-26T07:29:48;92861.44;;;28.93;63.83
6204;BME280;3135;42.602;23.468;2022-07-26T07:32:13;92872.81;;;29.02;61.95
6204;BME280;3135;42.602;23.468;2022-07-26T07:34:39;92871.44;;;29.28;61.91
6204;BME280;3135;42.602;23.468;2022-07-26T07:37:04;92863.50;;;29.41;61.80
6204;BME280;3135;42.602;23.468;2022-07-26T07:39:30;92874.31;;;29.66;60.08
6204;BME280;3135;42.602;23.468;2022-07-26T07:41:55;92882.91;;;29.72;60.03
6204;BME280;3135;42.602;23.468;2022-07-26T07:44:21;92867.06;;;29.83;58.56
6204;BME280;3135;42.602;23.468;2022-07-26T07:46:47;92874.41;;;29.56;58.50
6204;BME280;3135;42.602;23.468;2022-07-26T07:49:12;92881.69;;;30.18;57.60
6204;BME280;3135;42.602;23.468;2022-07-26T07:51:38;92865.13;;;30.18;56.94
6204;BME280;3135;42.602;23.468;2022-07-26T07:54:03;92879.50;;;30.36;56.49
6204;BME280;3135;42.602;23.468;2022-07-26T07:56:29;92877.19;;;30.31;57.88
6204;BME280;3135;42.602;23.468;2022-07-26T07:58:54;92861.59;;;30.17;57.47
6204;BME280;3135;42.602;23.468;2022-07-26T08:01:20;92863.47;;;30.24;57.98
6204;BME280;3135;42.602;23.468;2022-07-26T08:03:45;92865.66;;;30.74;54.27
6204;BME280;3135;42.602;23.468;2022-07-26T08:06:11;92862.19;;;30.97;55.00
6204;BME280;3135;42.602;23.468;2022-07-26T08:08:37;92853.94;;;31.20;52.24
6204;BME280;3135;42.602;23.468;2022-07-26T08:11:03;92862.78;;;31.08;54.03
6204;BME280;3135;42.602;23.468;2022-07-26T08:13:30;92862.28;;;31.67;52.54
6204;BME280;3135;42.602;23.468;2022-07-26T08:15:55;92844.13;;;31.43;54.08
6204;BME280;3135;42.602;23.468;2022-07-26T08:18:22;92864.25;;;30.89;53.85
6204;BME280;3135;42.602;23.468;2022-07-26T08:20:48;92839.34;;;31.20;53.64
6204;BME280;3135;42.602;23.468;2022-07-26T08:23:14;92839.25;;;31.74;51.64
6204;BME280;3135;42.602;23.468;2022-07-26T08:25:39;92841.78;;;31.65;51.11
6204;BME280;3135;42.602;23.468;2022-07-26T08:28:05;92835.25;;;31.55;51.39
6204;BME280;3135;42.602;23.468;2022-07-26T08:30:31;92839.59;;;31.99;51.78
6204;BME280;3135;42.602;23.468;2022-07-26T08:32:57;92838.28;;;31.37;50.86
6204;BME280;3135;42.602;23.468;2022-07-26T08:35:23;92828.16;;;31.54;49.05
6204;BME280;3135;42.602;23.468;2022-07-26T08:37:49;92843.53;;;32.42;47.61
6204;BME280;3135;42.602;23.468;2022-07-26T08:40:14;92847.38;;;32.84;47.35
6204;BME280;3135;42.602;23.468;2022-07-26T08:42:48;92846.34;;;32.78;48.11
6204;BME280;3135;42.602;23.468;2022-07-26T08:45:20;92849.19;;;33.11;44.97
6204;BME280;3135;42.602;23.468;2022-07-26T08:47:45;92844.97;;;32.86;45.91
6204;BME280;3135;42.602;23.468;2022-07-26T08:50:11;92841.75;;;33.24;43.53
6204;BME280;3135;42.602;23.468;2022-07-26T08:52:40;92846.28;;;33.34;43.20
6204;BME280;3135;42.602;23.468;2022-07-26T08:55:06;92834.56;;;32.74;43.42
6204;BME280;3135;42.602;23.468;2022-07-26T08:57:31;92839.22;;;32.41;43.88
6204;BME280;3135;42.602;23.468;2022-07-26T09:00:26;92837.91;;;32.65;40.89
6204;BME280;3135;42.602;23.468;2022-07-26T09:02:56;92835.59;;;33.00;39.93
6204;BME280;3135;42.602;23.468;2022-07-26T09:05:27;92836.22;;;33.24;38.82
6204;BME280;3135;42.602;23.468;2022-07-26T09:07:54;92836.81;;;33.80;38.08
6204;BME280;3135;42.602;23.468;2022-07-26T09:10:20;92835.28;;;33.63;35.67
6204;BME280;3135;42.602;23.468;2022-07-26T09:12:52;92841.06;;;33.85;35.22
6204;BME280;3135;42.602;23.468;2022-07-26T09:15:25;92831.31;;;34.39;38.24
6204;BME280;3135;42.602;23.468;2022-07-26T09:17:56;92845.84;;;34.72;36.01
6204;BME280;3135;42.602;23.468;2022-07-26T09:20:27;92842.50;;;34.64;37.14
6204;BME280;3135;42.602;23.468;2022-07-26T09:25:25;92843.63;;;34.67;36.95
6204;BME280;3135;42.602;23.468;2022-07-26T09:27:51;92838.84;;;34.38;36.55
6204;BME280;3135;42.602;23.468;2022-07-26T09:30:18;92842.91;;;33.75;37.49
6204;BME280;3135;42.602;23.468;2022-07-26T09:33:05;92836.59;;;33.75;38.63
6204;BME280;3135;42.602;23.468;2022-07-26T09:35:35;92821.00;;;33.65;37.88
6204;BME280;3135;42.602;23.468;2022-07-26T09:38:12;92831.81;;;33.75;36.94
6204;BME280;3135;42.602;23.468;2022-07-26T09:40:38;92835.19;;;33.67;37.20
6204;BME280;3135;42.602;23.468;2022-07-26T09:43:05;92835.03;;;33.41;38.50
6204;BME280;3135;42.602;23.468;2022-07-26T09:45:33;92815.31;;;33.55;36.75
6204;BME280;3135;42.602;23.468;2022-07-26T09:48:00;92810.25;;;33.67;36.25
6204;BME280;3135;42.602;23.468;2022-07-26T09:50:30;92831.25;;;33.51;37.42
6204;BME280;3135;42.602;23.468;2022-07-26T09:55:32;92841.53;;;34.83;35.67
6204;BME280;3135;42.602;23.468;2022-07-26T09:57:58;92832.25;;;34.48;34.85
6204;BME280;3135;42.602;23.468;2022-07-26T10:00:28;92832.03;;;35.23;34.77
6204;BME280;3135;42.602;23.468;2022-07-26T10:02:53;92824.91;;;35.60;34.12
6204;BME280;3135;42.602;23.468;2022-07-26T10:05:19;92835.16;;;35.85;33.50
6204;BME280;3135;42.602;23.468;2022-07-26T10:07:50;92820.94;;;35.83;33.14
6204;BME280;3135;42.602;23.468;2022-07-26T10:10:26;92842.78;;;35.72;33.50
6204;BME280;3135;42.602;23.468;2022-07-26T10:12:52;92812.94;;;35.25;33.90
6204;BME280;3135;42.602;23.468;2022-07-26T10:18:05;92826.59;;;35.57;32.77
6204;BME280;3135;42.602;23.468;2022-07-26T10:20:59;92815.63;;;35.76;33.13
6204;BME280;3135;42.602;23.468;2022-07-26T10:23:43;92827.56;;;35.64;31.99
6204;BME280;3135;42.602;23.468;2022-07-26T10:28:54;92813.00;;;36.29;31.45
6204;BME280;3135;42.602;23.468;2022-07-26T10:33:49;92799.59;;;36.37;30.39
6204;BME280;3135;42.602;23.468;2022-07-26T10:36:35;92795.97;;;36.27;31.51
6204;BME280;3135;42.602;23.468;2022-07-26T10:39:13;92816.22;;;34.94;32.35
6204;BME280;3135;42.602;23.468;2022-07-26T10:52:13;92806.09;;;35.64;31.90
6204;BME280;3135;42.602;23.468;2022-07-26T10:57:31;92791.84;;;36.09;31.41
6204;BME280;3135;42.602;23.468;2022-07-26T10:59:58;92785.56;;;35.96;31.18
6204;BME280;3135;42.602;23.468;2022-07-26T11:02:26;92773.94;;;36.11;31.64
6204;BME280;3135;42.602;23.468;2022-07-26T11:05:03;92778.66;;;36.01;31.43
6204;BME280;3135;42.602;23.468;2022-07-26T11:07:30;92777.53;;;35.38;32.25
6204;BME280;3135;42.602;23.468;2022-07-26T11:09:59;92774.03;;;35.12;32.63
6204;BME280;3135;42.602;23.468;2022-07-26T11:12:26;92758.13;;;35.25;32.33
6204;BME280;3135;42.602;23.468;2022-07-26T11:14:51;92769.19;;;35.64;31.59
6204;BME280;3135;42.602;23.468;2022-07-26T11:17:36;92764.63;;;35.92;31.80
6204;BME280;3135;42.602;23.468;2022-07-26T11:20:01;92758.25;;;36.26;30.58
6204;BME280;3135;42.602;23.468;2022-07-26T11:22:32;92750.38;;;36.24;31.13
6204;BME280;3135;42.602;23.468;2022-07-26T11:24:57;92741.94;;;36.59;31.86
6204;BME280;3135;42.602;23.468;2022-07-26T11:27:23;92729.00;;;36.21;30.30
6204;BME280;3135;42.602;23.468;2022-07-26T11:29:48;92745.63;;;36.87;30.67
6204;BME280;3135;42.602;23.468;2022-07-26T11:32:23;92744.94;;;36.74;31.43
6204;BME280;3135;42.602;23.468;2022-07-26T11:35:03;92747.88;;;36.70;30.59
6204;BME280;3135;42.602;23.468;2022-07-26T11:37:29;92737.50;;;37.02;30.43
6204;BME280;3135;42.602;23.468;2022-07-26T11:39:55;92730.06;;;36.15;30.95
6204;BME280;3135;42.602;23.468;2022-07-26T11:42:21;92729.88;;;36.09;30.91
6204;BME280;3135;42.602;23.468;2022-07-26T11:44:47;92718.00;;;36.18;31.16
6204;BME280;3135;42.602;23.468;2022-07-26T11:47:18;92716.50;;;35.00;31.63
6204;BME280;3135;42.602;23.468;2022-07-26T11:49:45;92736.13;;;35.18;32.61
6204;BME280;3135;42.602;23.468;2022-07-26T11:52:11;92728.06;;;35.58;31.75
6204;BME280;3135;42.602;23.468;2022-07-26T11:54:48;92712.94;;;35.59;32.48
6204;BME280;3135;42.602;23.468;2022-07-26T11:57:15;92722.97;;;36.23;31.53
6204;BME280;3135;42.602;23.468;2022-07-26T11:59:44;92721.06;;;36.42;32.41
6204;BME280;3135;42.602;23.468;2022-07-26T12:02:10;92716.81;;;35.84;31.97
6204;BME280;3135;42.602;23.468;2022-07-26T12:04:39;92709.63;;;36.40;31.72
6204;BME280;3135;42.602;23.468;2022-07-26T12:07:10;92709.53;;;36.21;31.12
6204;BME280;3135;42.602;23.468;2022-07-26T12:12:07;92697.50;;;37.36;29.58
6204;BME280;3135;42.602;23.468;2022-07-26T12:14:38;92696.25;;;36.88;30.78
6204;BME280;3135;42.602;23.468;2022-07-26T12:17:15;92693.41;;;36.38;31.08
6204;BME280;3135;42.602;23.468;2022-07-26T12:19:41;92702.19;;;36.58;31.32
6204;BME280;3135;42.602;23.468;2022-07-26T12:22:15;92715.59;;;36.51;31.15
6204;BME280;3135;42.602;23.468;2022-07-26T12:27:19;92699.63;;;37.23;29.67
6204;BME280;3135;42.602;23.468;2022-07-26T12:29:47;92700.31;;;37.64;28.30
6204;BME280;3135;42.602;23.468;2022-07-26T12:32:15;92695.50;;;37.82;28.81
6204;BME280;3135;42.602;23.468;2022-07-26T12:34:53;92704.03;;;37.60;29.01
6204;BME280;3135;42.602;23.468;2022-07-26T12:37:19;92702.06;;;37.98;28.39
6204;BME280;3135;42.602;23.468;2022-07-26T12:40:05;92682.75;;;37.35;29.84
6204;BME280;3135;42.602;23.468;2022-07-26T12:42:36;92694.28;;;36.97;30.50
6204;BME280;3135;42.602;23.468;2022-07-26T12:45:04;92693.28;;;37.22;29.94
6204;BME280;3135;42.602;23.468;2022-07-26T12:47:31;92693.31;;;37.31;30.76
6204;BME280;3135;42.602;23.468;2022-07-26T12:49:57;92688.44;;;37.04;30.01
6204;BME280;3135;42.602;23.468;2022-07-26T12:52:23;92686.38;;;37.54;29.66
6204;BME280;3135;42.602;23.468;2022-07-26T12:54:50;92696.91;;;37.69;29.69
6204;BME280;3135;42.602;23.468;2022-07-26T12:57:16;92700.66;;;38.02;28.90
6204;BME280;3135;42.602;23.468;2022-07-26T12:59:43;92691.50;;;37.74;28.48
6204;BME280;3135;42.602;23.468;2022-07-26T13:02:08;92679.53;;;37.37;27.65
6204;BME280;3135;42.602;23.468;2022-07-26T13:04:34;92680.97;;;37.51;27.71
6204;BME280;3135;42.602;23.468;2022-07-26T13:07:00;92672.41;;;37.82;28.91
6204;BME280;3135;42.602;23.468;2022-07-26T13:09:26;92684.47;;;38.16;27.71
6204;BME280;3135;42.602;23.468;2022-07-26T13:11:52;92684.47;;;38.25;27.28
6204;BME280;3135;42.602;23.468;2022-07-26T13:14:17;92671.00;;;38.32;27.17
6204;BME280;3135;42.602;23.468;2022-07-26T13:16:43;92686.63;;;38.39;27.39
6204;BME280;3135;42.602;23.468;2022-07-26T13:19:08;92688.22;;;37.67;27.95
6204;BME280;3135;42.602;23.468;2022-07-26T13:21:34;92668.66;;;37.30;28.34
6204;BME280;3135;42.602;23.468;2022-07-26T13:24:00;92672.75;;;37.47;27.73
6204;BME280;3135;42.602;23.468;2022-07-26T13:26:25;92665.22;;;37.17;28.72
6204;BME280;3135;42.602;23.468;2022-07-26T13:28:51;92676.50;;;36.95;28.14
6204;BME280;3135;42.602;23.468;2022-07-26T13:31:16;92671.88;;;36.07;28.90
6204;BME280;3135;42.602;23.468;2022-07-26T13:33:42;92670.66;;;36.08;28.67
6204;BME280;3135;42.602;23.468;2022-07-26T13:36:08;92664.75;;;36.28;28.24
6204;BME280;3135;42.602;23.468;2022-07-26T13:38:33;92678.47;;;36.85;28.77
6204;BME280;3135;42.602;23.468;2022-07-26T13:41:00;92683.50;;;37.08;28.03